createdAt,value
2023-03-26T00:00:54.323Z,53.95
2023-03-26T00:03:58.077Z,54.15
2023-03-26T00:07:00.913Z,53.81
2023-03-26T00:10:06.572Z,53.87
2023-03-26T00:13:10.350Z,54.04
2023-03-26T00:16:14.774Z,54.38
2023-03-26T00:19:17.385Z,53.91
2023-03-26T00:22:23.675Z,53.76
2023-03-26T00:25:26.393Z,53.93
2023-03-26T00:28:29.823Z,54.55
2023-03-26T00:31:33.279Z,54.41
2023-03-26T00:34:36.609Z,54.26
2023-03-26T00:37:42.488Z,54.61
2023-03-26T00:40:48.189Z,53.81
2023-03-26T00:43:53.496Z,54.25
2023-03-26T00:46:56.390Z,53.96
2023-03-26T00:49:59.970Z,54.77
2023-03-26T00:53:03.789Z,54.20
2023-03-26T00:56:08.693Z,54.41
2023-03-26T00:59:12.691Z,54.87
2023-03-26T01:02:18.725Z,55.80
2023-03-26T01:05:55.800Z,55.35
2023-03-26T01:09:07.030Z,55.17
2023-03-26T01:12:18.294Z,56.26
2023-03-26T01:15:22.142Z,56.67
2023-03-26T01:18:28.487Z,56.57
2023-03-26T01:21:34.539Z,56.41
2023-03-26T01:24:38.382Z,56.97
2023-03-26T01:27:50.123Z,56.91
2023-03-26T01:31:18.395Z,56.78
2023-03-26T01:34:30.702Z,57.37
2023-03-26T01:37:46.901Z,56.26
2023-03-26T01:41:07.120Z,56.32
2023-03-26T01:44:19.451Z,55.98
2023-03-26T01:47:22.772Z,55.42
2023-03-26T01:50:26.387Z,55.52
2023-03-26T01:53:29.505Z,55.63
2023-03-26T01:56:41.775Z,55.38
2023-03-26T02:00:07.245Z,54.67
2023-03-26T02:03:27.931Z,54.40
2023-03-26T02:06:44.562Z,54.83
2023-03-26T02:09:55.440Z,54.38
2023-03-26T02:12:59.250Z,54.13
2023-03-26T02:16:05.777Z,54.62
2023-03-26T02:19:15.523Z,55.28
2023-03-26T02:22:18.366Z,54.46
2023-03-26T02:25:22.205Z,54.02
2023-03-26T02:28:26.588Z,55.53
2023-03-26T02:31:30.347Z,55.58
2023-03-26T02:34:33.523Z,56.14
2023-03-26T02:37:36.252Z,57.58
2023-03-26T02:40:48.243Z,57.34
2023-03-26T02:43:51.128Z,57.36
2023-03-26T02:46:57.241Z,57.91
2023-03-26T02:50:21.213Z,57.76
2023-03-26T02:53:44.161Z,58.63
2023-03-26T02:57:01.900Z,58.78
2023-03-26T03:00:17.960Z,59.35
2023-03-26T03:03:27.551Z,58.69
2023-03-26T03:06:38.322Z,59.01
2023-03-26T03:09:42.249Z,60.17
2023-03-26T03:13:07.911Z,59.95
2023-03-26T03:16:11.438Z,60.49
2023-03-26T03:19:14.591Z,60.31
2023-03-26T03:22:18.471Z,60.34
2023-03-26T03:25:23.428Z,60.36
2023-03-26T03:28:26.741Z,59.64
2023-03-26T03:31:29.767Z,60.32
2023-03-26T03:34:38.850Z,59.25
2023-03-26T03:37:43.261Z,59.27
2023-03-26T03:40:47.582Z,59.74
2023-03-26T03:43:51.966Z,60.21
2023-03-26T03:47:02.369Z,59.73
2023-03-26T03:50:06.646Z,60.20
2023-03-26T03:53:15.844Z,59.16
2023-03-26T03:56:24.172Z,59.95
2023-03-26T03:59:58.379Z,60.35
2023-03-26T04:03:06.461Z,59.95
2023-03-26T04:06:11.134Z,59.99
2023-03-26T04:09:14.907Z,59.08
2023-03-26T04:12:18.721Z,59.25
2023-03-26T04:15:36.030Z,59.22
2023-03-26T04:18:40.037Z,60.72
2023-03-26T04:21:49.565Z,60.63
2023-03-26T04:24:55.215Z,60.32
2023-03-26T04:28:07.152Z,60.30
2023-03-26T04:31:31.290Z,60.59
2023-03-26T04:34:36.472Z,60.34
2023-03-26T04:37:46.217Z,60.09
2023-03-26T04:41:00.853Z,59.92
2023-03-26T04:44:31.893Z,61.01
2023-03-26T04:47:39.854Z,60.00
2023-03-26T04:50:45.476Z,60.43
2023-03-26T04:54:00.028Z,59.62
2023-03-26T04:57:21.324Z,60.21
2023-03-26T05:00:32.472Z,60.23
2023-03-26T05:03:40.765Z,59.83
2023-03-26T05:06:46.980Z,59.12
2023-03-26T05:09:58.755Z,58.56
2023-03-26T05:13:18.465Z,58.18
2023-03-26T05:16:26.845Z,57.01
2023-03-26T05:19:33.804Z,57.23
2023-03-26T05:22:38.746Z,56.69
2023-03-26T05:25:59.523Z,56.28
2023-03-26T05:29:03.157Z,56.42
2023-03-26T05:32:12.909Z,57.43
2023-03-26T05:35:19.548Z,55.09
2023-03-26T05:38:23.536Z,57.05
2023-03-26T05:41:27.121Z,57.18
2023-03-26T05:44:29.952Z,57.34
2023-03-26T05:47:37.522Z,57.69
2023-03-26T05:50:41.549Z,58.35
2023-03-26T05:53:44.598Z,55.54
2023-03-26T05:56:47.140Z,55.25
2023-03-26T06:00:10.800Z,53.97
2023-03-26T06:03:19.334Z,53.48
2023-03-26T06:07:02.381Z,53.18
2023-03-26T06:10:05.745Z,53.50
2023-03-26T06:13:08.333Z,53.08
2023-03-26T06:16:26.369Z,52.60
2023-03-26T06:19:48.011Z,52.55
2023-03-26T06:22:59.890Z,51.99
2023-03-26T06:26:38.060Z,50.74
2023-03-26T06:30:00.038Z,50.59
2023-03-26T06:33:16.588Z,50.43
2023-03-26T06:36:23.550Z,48.98
2023-03-26T06:39:27.041Z,49.60
2023-03-26T06:43:07.595Z,49.43
2023-03-26T06:46:43.146Z,49.31
2023-03-26T06:49:53.141Z,48.62
2023-03-26T06:53:15.971Z,48.34
2023-03-26T06:56:40.296Z,49.11
2023-03-26T07:00:15.851Z,48.93
2023-03-26T07:03:45.240Z,50.20
2023-03-26T07:07:06.645Z,49.23
2023-03-26T07:10:41.121Z,49.62
2023-03-26T07:14:07.534Z,49.21
2023-03-26T07:17:30.008Z,48.12
2023-03-26T07:20:56.578Z,47.41
2023-03-26T07:24:01.386Z,45.92
2023-03-26T07:27:59.871Z,46.32
2023-03-26T07:31:42.404Z,45.38
2023-03-26T07:35:49.110Z,44.55
2023-03-26T07:39:39.492Z,43.81
2023-03-26T07:43:03.388Z,42.08
2023-03-26T07:46:25.987Z,41.48
2023-03-26T07:49:58.158Z,40.17
2023-03-26T07:53:22.640Z,40.39
2023-03-26T07:56:59.257Z,40.49
2023-03-26T08:00:48.954Z,40.44
2023-03-26T08:07:48.487Z,40.60
2023-03-26T08:11:03.112Z,41.08
2023-03-26T08:14:29.474Z,39.93
2023-03-26T08:17:45.007Z,41.32
2023-03-26T08:20:58.437Z,42.23
2023-03-26T08:24:25.785Z,42.41
2023-03-26T08:28:09.026Z,42.71
2023-03-26T08:31:15.359Z,42.54
2023-03-26T08:34:17.966Z,42.23
2023-03-26T08:37:20.659Z,42.05
2023-03-26T08:40:44.022Z,40.61
2023-03-26T08:44:14.533Z,39.91
2023-03-26T08:47:25.772Z,40.53
2023-03-26T08:50:40.107Z,40.63
2023-03-26T08:54:02.165Z,40.66
2023-03-26T08:57:23.504Z,40.62
2023-03-26T09:01:00.285Z,40.17
2023-03-26T09:04:14.573Z,39.71
2023-03-26T09:07:36.734Z,38.99
2023-03-26T09:11:27.943Z,39.55
2023-03-26T09:14:33.523Z,39.68
2023-03-26T09:18:13.079Z,38.67
2023-03-26T09:21:36.423Z,37.31
2023-03-26T09:25:03.158Z,37.70
2023-03-26T09:28:24.962Z,38.24
2023-03-26T09:31:43.615Z,37.95
2023-03-26T09:35:15.802Z,38.10
2023-03-26T09:38:40.513Z,37.40
2023-03-26T09:41:59.430Z,36.40
2023-03-26T09:45:27.988Z,37.26
2023-03-26T09:48:54.188Z,37.41
2023-03-26T09:52:12.636Z,36.83
2023-03-26T09:55:48.651Z,36.98
2023-03-26T09:59:07.120Z,38.15
2023-03-26T10:02:46.576Z,38.18
2023-03-26T10:05:52.221Z,36.36
2023-03-26T10:09:24.689Z,36.00
2023-03-26T10:12:37.331Z,37.83
2023-03-26T10:15:45.728Z,35.77
2023-03-26T10:18:49.052Z,36.86
2023-03-26T10:22:22.949Z,37.47
2023-03-26T10:25:37.117Z,37.10
2023-03-26T10:29:11.184Z,37.29
2023-03-26T10:32:45.436Z,37.11
2023-03-26T10:36:26.925Z,38.08
2023-03-26T10:39:54.588Z,37.12
2023-03-26T10:43:37.083Z,37.43
2023-03-26T10:47:18.743Z,42.63
2023-03-26T10:51:07.863Z,43.01
2023-03-26T10:54:22.216Z,41.48
2023-03-26T10:57:25.862Z,40.55
2023-03-26T11:00:30.123Z,40.45
2023-03-26T11:03:54.582Z,40.75
2023-03-26T11:07:06.603Z,40.75
2023-03-26T11:10:39.336Z,39.49
2023-03-26T11:14:03.510Z,37.91
2023-03-26T11:17:40.541Z,38.77
2023-03-26T11:20:56.192Z,38.62
2023-03-26T11:24:46.530Z,38.41
2023-03-26T11:27:57.794Z,37.73
2023-03-26T11:31:39.313Z,38.10
2023-03-26T11:34:54.411Z,38.90
2023-03-26T11:38:02.448Z,40.18
2023-03-26T11:41:15.909Z,38.29
2023-03-26T11:44:38.465Z,36.74
2023-03-26T11:47:50.745Z,37.16
2023-03-26T11:51:14.938Z,36.79
2023-03-26T11:54:17.969Z,36.26
2023-03-26T11:57:28.347Z,34.46
2023-03-26T12:00:32.502Z,34.21
2023-03-26T12:03:38.277Z,34.61
2023-03-26T12:06:53.066Z,33.80
2023-03-26T12:10:18.386Z,33.99
2023-03-26T12:13:21.684Z,33.07
2023-03-26T12:16:24.630Z,33.80
2023-03-26T12:19:33.710Z,32.29
2023-03-26T12:22:39.925Z,31.53
2023-03-26T12:25:43.890Z,31.86
2023-03-26T12:28:49.446Z,32.07
2023-03-26T12:32:07.470Z,30.48
2023-03-26T12:35:18.936Z,29.10
2023-03-26T12:38:34.698Z,28.38
2023-03-26T12:44:43.637Z,27.42
2023-03-26T12:45:06.901Z,26.51
2023-03-26T12:48:15.706Z,26.01
2023-03-26T12:51:33.836Z,23.79
2023-03-26T12:54:36.972Z,26.03
2023-03-26T12:58:14.030Z,24.52
2023-03-26T13:01:50.551Z,25.24
2023-03-26T13:05:32.377Z,25.60
2023-03-26T13:09:03.522Z,24.79
2023-03-26T13:12:20.165Z,24.70
2023-03-26T13:15:34.664Z,22.92
2023-03-26T13:18:54.378Z,23.08
2023-03-26T13:22:20.157Z,23.42
2023-03-26T13:26:07.452Z,22.15
2023-03-26T13:29:30.423Z,21.07
2023-03-26T13:33:02.389Z,25.85
2023-03-26T13:36:30.132Z,23.54
2023-03-26T13:39:37.766Z,23.82
2023-03-26T13:43:06.657Z,23.96
2023-03-26T13:46:20.732Z,23.10
2023-03-26T13:50:05.617Z,20.69
2023-03-26T13:53:19.451Z,19.33
2023-03-26T13:56:32.037Z,18.07
2023-03-26T13:59:46.928Z,18.31
2023-03-26T14:02:57.992Z,18.70
2023-03-26T14:06:07.583Z,18.04
2023-03-26T14:09:55.542Z,18.35
2023-03-26T14:13:07.705Z,18.73
2023-03-26T14:16:25.839Z,20.05
2023-03-26T14:19:34.373Z,19.90
2023-03-26T14:23:31.072Z,19.62
2023-03-26T14:26:40.549Z,18.82
2023-03-26T14:30:04.991Z,17.57
2023-03-26T14:33:27.906Z,16.84
2023-03-26T14:37:06.545Z,16.05
2023-03-26T14:40:30.173Z,17.27
2023-03-26T14:43:58.801Z,18.81
2023-03-26T14:47:55.031Z,19.58
2023-03-26T14:51:09.606Z,17.98
2023-03-26T14:54:23.464Z,18.42
2023-03-26T14:57:33.210Z,17.37
2023-03-26T15:01:23.485Z,19.95
2023-03-26T15:05:07.018Z,18.66
2023-03-26T15:08:33.701Z,18.65
2023-03-26T15:11:49.582Z,17.99
2023-03-26T15:15:35.136Z,20.80
2023-03-26T15:19:08.875Z,21.93
2023-03-26T15:22:25.942Z,22.47
2023-03-26T15:25:40.942Z,23.15
2023-03-26T15:28:58.508Z,23.56
2023-03-26T15:32:26.873Z,24.67
2023-03-26T15:35:45.407Z,25.14
2023-03-26T15:39:15.180Z,25.56
2023-03-26T15:42:38.074Z,25.63
2023-03-26T15:45:54.048Z,26.06
2023-03-26T15:49:37.003Z,26.45
2023-03-26T15:52:55.228Z,26.14
2023-03-26T15:56:20.926Z,26.05
2023-03-26T15:59:41.779Z,26.50
2023-03-26T16:03:09.225Z,26.96
2023-03-26T16:06:28.001Z,27.47
2023-03-26T16:09:45.768Z,28.28
2023-03-26T16:13:22.854Z,28.13
2023-03-26T16:16:54.110Z,28.79
2023-03-26T16:20:23.406Z,29.73
2023-03-26T16:23:47.708Z,29.08
2023-03-26T16:26:51.686Z,29.64
2023-03-26T16:30:00.503Z,29.78
2023-03-26T16:33:15.449Z,30.47
2023-03-26T16:36:41.920Z,30.22
2023-03-26T16:39:44.898Z,29.79
2023-03-26T16:43:06.871Z,29.83
2023-03-26T16:46:23.675Z,30.80
2023-03-26T16:49:35.648Z,31.37
2023-03-26T16:52:52.000Z,31.34
2023-03-26T16:56:02.798Z,31.42
2023-03-26T16:59:29.752Z,31.58
2023-03-26T17:02:36.824Z,31.81
2023-03-26T17:05:56.653Z,32.10
2023-03-26T17:09:00.410Z,32.00
2023-03-26T17:12:27.117Z,32.61
2023-03-26T17:16:01.601Z,32.75
2023-03-26T17:19:17.790Z,32.67
2023-03-26T17:22:45.206Z,32.77
2023-03-26T17:26:22.295Z,32.90
2023-03-26T17:30:03.498Z,32.92
2023-03-26T17:33:25.594Z,33.97
2023-03-26T17:36:41.495Z,33.89
2023-03-26T17:39:46.879Z,34.68
2023-03-26T17:43:11.472Z,34.63
2023-03-26T17:46:37.736Z,34.50
2023-03-26T17:49:41.495Z,34.38
2023-03-26T17:53:07.363Z,34.45
2023-03-26T17:56:18.328Z,34.36
2023-03-26T17:59:25.502Z,33.94
2023-03-26T18:02:37.411Z,34.45
2023-03-26T18:05:40.538Z,33.94
2023-03-26T18:09:10.987Z,34.14
2023-03-26T18:12:26.810Z,33.98
2023-03-26T18:15:47.911Z,34.37
2023-03-26T18:18:57.678Z,34.72
2023-03-26T18:22:06.075Z,34.91
2023-03-26T18:25:22.925Z,34.25
2023-03-26T18:28:35.673Z,34.99
2023-03-26T18:31:42.661Z,35.23
2023-03-26T18:34:53.805Z,35.24
2023-03-26T18:38:01.114Z,35.26
2023-03-26T18:41:05.915Z,35.25
2023-03-26T18:44:16.970Z,34.93
2023-03-26T18:47:21.036Z,35.54
2023-03-26T18:50:29.309Z,35.56
2023-03-26T18:53:39.399Z,35.54
2023-03-26T18:56:47.185Z,35.22
2023-03-26T18:59:52.808Z,35.22
2023-03-26T19:03:05.142Z,35.50
2023-03-26T19:06:10.419Z,35.37
2023-03-26T19:09:30.392Z,35.79
2023-03-26T19:12:37.434Z,35.80
2023-03-26T19:15:42.421Z,35.73
2023-03-26T19:18:45.623Z,35.94
2023-03-26T19:21:50.139Z,35.68
2023-03-26T19:25:00.649Z,35.69
2023-03-26T19:28:06.303Z,36.29
2023-03-26T19:31:17.202Z,36.71
2023-03-26T19:34:33.800Z,36.68
2023-03-26T19:37:51.035Z,37.08
2023-03-26T19:40:57.194Z,37.40
2023-03-26T19:44:02.638Z,39.86
2023-03-26T19:47:17.471Z,39.81
2023-03-26T19:50:28.107Z,39.32
2023-03-26T19:53:37.407Z,39.90
2023-03-26T19:56:40.705Z,40.59
2023-03-26T19:59:43.662Z,40.99
2023-03-26T20:02:54.072Z,40.57
2023-03-26T20:05:58.102Z,40.05
2023-03-26T20:09:01.945Z,40.11
2023-03-26T20:12:04.544Z,40.25
2023-03-26T20:15:18.972Z,39.60
2023-03-26T20:18:22.778Z,39.76
2023-03-26T20:21:26.587Z,39.71
2023-03-26T20:24:31.127Z,39.68
2023-03-26T20:27:34.543Z,38.91
2023-03-26T20:30:38.913Z,38.77
2023-03-26T20:33:42.302Z,38.64
2023-03-26T20:36:47.092Z,38.88
2023-03-26T20:39:50.105Z,38.77
2023-03-26T20:42:52.757Z,38.94
2023-03-26T20:45:58.528Z,39.14
2023-03-26T20:49:02.032Z,39.06
2023-03-26T20:52:05.816Z,39.06
2023-03-26T20:55:12.717Z,38.81
2023-03-26T20:58:31.376Z,39.46
2023-03-26T21:01:34.903Z,39.35
2023-03-26T21:04:37.510Z,39.75
2023-03-26T21:07:42.925Z,39.85
2023-03-26T21:10:47.609Z,40.10
2023-03-26T21:14:02.097Z,40.50
2023-03-26T21:17:07.519Z,40.50
2023-03-26T21:20:13.618Z,40.77
2023-03-26T21:23:40.860Z,40.38
2023-03-26T21:26:52.821Z,42.23
2023-03-26T21:29:56.260Z,43.69
2023-03-26T21:32:59.784Z,45.66
2023-03-26T21:36:04.551Z,48.65
2023-03-26T21:39:11.123Z,52.16
2023-03-26T21:42:14.838Z,54.50
2023-03-26T21:45:19.456Z,55.74
2023-03-26T21:48:23.630Z,56.02
2023-03-26T21:51:27.569Z,55.86
2023-03-26T21:54:32.738Z,56.10
2023-03-26T21:57:45.426Z,55.91
2023-03-26T22:00:51.850Z,54.53
2023-03-26T22:04:06.673Z,55.95
2023-03-26T22:07:14.689Z,55.02
2023-03-26T22:10:19.220Z,54.80
2023-03-26T22:13:21.845Z,54.07
2023-03-26T22:16:25.482Z,54.90
2023-03-26T22:19:30.109Z,53.83
2023-03-26T22:22:32.947Z,55.35
2023-03-26T22:25:36.215Z,55.68
2023-03-26T22:28:39.821Z,56.76
2023-03-26T22:31:42.854Z,56.05
2023-03-26T22:34:45.720Z,56.14
2023-03-26T22:37:48.551Z,56.27
2023-03-26T22:40:57.280Z,56.70
2023-03-26T22:44:09.250Z,59.50
2023-03-26T22:47:22.582Z,59.98
2023-03-26T22:50:27.745Z,61.72
2023-03-26T22:53:31.884Z,58.45
2023-03-26T22:56:34.499Z,57.80
2023-03-26T22:59:37.694Z,59.39
2023-03-26T23:02:41.198Z,60.91
2023-03-26T23:05:54.953Z,62.08
2023-03-26T23:08:58.159Z,62.05
2023-03-26T23:12:01.303Z,62.13
2023-03-26T23:15:06.543Z,61.72
2023-03-26T23:18:09.194Z,62.51
2023-03-26T23:21:22.110Z,61.04
2023-03-26T23:24:26.447Z,63.35
2023-03-26T23:27:29.715Z,65.93
2023-03-26T23:30:35.052Z,64.79
2023-03-26T23:33:45.593Z,67.26
2023-03-26T23:36:49.991Z,67.12
2023-03-26T23:39:52.677Z,67.15
2023-03-26T23:42:56.559Z,66.35
2023-03-26T23:45:59.822Z,67.09
2023-03-26T23:49:03.806Z,67.11
2023-03-26T23:52:06.556Z,68.07
2023-03-26T23:55:09.255Z,68.10
2023-03-26T23:58:11.824Z,68.51
